Triton Leader — 3FFE9 — position and weather

sailwx.info

Track history (hours):
 
Tides and Currents Weather Stations Pressure Air Temp Water Temp Dewpoint Dewpoint Depression Visibility Wind Speed Wind Dir Waves Ship Positions

Triton Leader

Last reported at 2018-Jun-09 22:51 UTC. Time now 2018-Jun-21 16:28 UTC.
Position N 01°19' E 103°18'.
Warning: this ship's position is 11 days out of date.

Length 199 m; draft 9 m.

Type: Cargo ship. MMSI: 357795000.

Date/timePositionNaut miles runAvg speedWind from/ knotsBaromVisibWave heightAir tempDewpointWater temp
2018-Jun-09 22:51N 01°19' E 103°18'616.9
2018-Jun-09 22:28N 01°15' E 103°23'815.8
2018-Jun-09 22:00N 01°12' E 103°30'612.7
2018-Jun-09 21:30N 01°12' E 103°36'4 8.5
2018-Jun-09 21:00N 01°13' E 103°40'510.2
2018-Jun-09 20:30N 01°16' E 103°45'1 2.4
2018-Jun-09 20:00N 01°17' E 103°45'0 0.0
2018-Jun-09 19:29N 01°17' E 103°45'0 0.0
2018-Jun-09 19:00N 01°17' E 103°45'0 0.0
2018-Jun-09 18:30N 01°17' E 103°45'0 0.0
2018-Jun-09 18:00N 01°17' E 103°45'0 0.0
2018-Jun-09 17:29N 01°17' E 103°45'0 0.0
2018-Jun-09 16:56N 01°17' E 103°45'0 0.0
2018-Jun-09 16:30N 01°17' E 103°45'0 0.0
2018-Jun-09 16:00N 01°17' E 103°45'0 0.0
2018-Jun-09 15:00N 01°17' E 103°45'0 0.0
2018-Jun-09 14:30N 01°17' E 103°45'0 0.0
2018-Jun-09 14:00N 01°17' E 103°45'0 0.0
2018-Jun-09 13:30N 01°17' E 103°45'0 0.0
2018-Jun-09 13:00N 01°17' E 103°45'0 0.0
2018-Jun-09 12:30N 01°17' E 103°45'0 0.0
2018-Jun-09 12:00N 01°17' E 103°45'0 0.0
2018-Jun-09 11:30N 01°17' E 103°45'0 0.0
2018-Jun-09 11:00N 01°17' E 103°45'0 0.0
2018-Jun-09 10:30N 01°17' E 103°45'0 0.0
2018-Jun-09 09:59N 01°17' E 103°45'0 0.0
2018-Jun-09 09:30N 01°17' E 103°45'0 0.0
2018-Jun-09 09:00N 01°17' E 103°45'0 0.0
2018-Jun-09 08:29N 01°17' E 103°45'0 0.0
2018-Jun-09 08:00N 01°17' E 103°45'0 0.0
2018-Jun-09 07:21N 01°17' E 103°45'0 0.0
2018-Jun-09 06:57N 01°17' E 103°45'0 0.0
2018-Jun-09 06:30N 01°17' E 103°45'0 0.0
2018-Jun-09 05:59N 01°17' E 103°45'0 0.0
2018-Jun-09 05:29N 01°17' E 103°45'0 0.0
2018-Jun-09 04:59N 01°17' E 103°45'0 0.0
2018-Jun-09 04:30N 01°17' E 103°45'0 0.0
2018-Jun-09 04:00N 01°17' E 103°45'0 0.0
2018-Jun-09 03:30N 01°17' E 103°45'0 0.0
2018-Jun-09 03:00N 01°17' E 103°45'0 0.0
2018-Jun-09 02:30N 01°17' E 103°45'0 0.0
2018-Jun-09 01:59N 01°17' E 103°45'0 0.0
2018-Jun-09 01:29N 01°17' E 103°45'0 0.0
2018-Jun-09 00:59N 01°17' E 103°45'0 0.0
2018-Jun-09 00:27N 01°17' E 103°45'0 0.0
2018-Jun-09 00:00N 01°17' E 103°45'1 1.1
2018-Jun-08 23:30N 01°17' E 103°45'4 7.3
2018-Jun-08 23:00N 01°14' E 103°47'5 9.5
2018-Jun-08 22:30N 01°13' E 103°52'2 4.3
2018-Jun-08 22:00N 01°14' E 103°54'3 5.0
2018-Jun-08 21:29N 01°14' E 103°57'4 8.0
2018-Jun-08 21:00N 01°15' E 104°00'510.7
2018-Jun-08 20:30N 01°16' E 104°05'610.6
2018-Jun-08 19:57N 01°17' E 104°11'510.7
2018-Jun-08 19:30N 01°17' E 104°16'510.4
2018-Jun-08 18:59N 01°20' E 104°21'610.9
2018-Jun-08 18:28N 01°24' E 104°25'510.7
2018-Jun-08 18:00N 01°27' E 104°29'611.0
2018-Jun-08 17:28N 01°31' E 104°33'  
Track history (hours):
 
Tides and Currents Weather Stations Pressure Air Temp Water Temp Dewpoint Dewpoint Depression Visibility Wind Speed Wind Dir Waves Ship Positions

Triton Leader

Last reported at 2018-Jun-09 22:51 UTC. Time now 2018-Jun-21 16:29 UTC.
Position N 01°19' E 103°18'.
Warning: this ship's position is 11 days out of date.

Length 199 m; draft 9 m.

Type: Cargo ship. MMSI: 357795000.

Date/timePositionNaut miles runAvg speedWind from/ knotsBaromVisibWave heightAir tempDewpointWater temp
2018-Jun-09 22:51N 01°19' E 103°18'616.9
2018-Jun-09 22:28N 01°15' E 103°23'815.8
2018-Jun-09 22:00N 01°12' E 103°30'612.7
2018-Jun-09 21:30N 01°12' E 103°36'4 8.5
2018-Jun-09 21:00N 01°13' E 103°40'510.2
2018-Jun-09 20:30N 01°16' E 103°45'1 2.4
2018-Jun-09 20:00N 01°17' E 103°45'0 0.0
2018-Jun-09 19:29N 01°17' E 103°45'0 0.0
2018-Jun-09 19:00N 01°17' E 103°45'0 0.0
2018-Jun-09 18:30N 01°17' E 103°45'0 0.0
2018-Jun-09 18:00N 01°17' E 103°45'0 0.0
2018-Jun-09 17:29N 01°17' E 103°45'0 0.0
2018-Jun-09 16:56N 01°17' E 103°45'0 0.0
2018-Jun-09 16:30N 01°17' E 103°45'0 0.0
2018-Jun-09 16:00N 01°17' E 103°45'0 0.0
2018-Jun-09 15:00N 01°17' E 103°45'0 0.0
2018-Jun-09 14:30N 01°17' E 103°45'0 0.0
2018-Jun-09 14:00N 01°17' E 103°45'0 0.0
2018-Jun-09 13:30N 01°17' E 103°45'0 0.0
2018-Jun-09 13:00N 01°17' E 103°45'0 0.0
2018-Jun-09 12:30N 01°17' E 103°45'0 0.0
2018-Jun-09 12:00N 01°17' E 103°45'0 0.0
2018-Jun-09 11:30N 01°17' E 103°45'0 0.0
2018-Jun-09 11:00N 01°17' E 103°45'0 0.0
2018-Jun-09 10:30N 01°17' E 103°45'0 0.0
2018-Jun-09 09:59N 01°17' E 103°45'0 0.0
2018-Jun-09 09:30N 01°17' E 103°45'0 0.0
2018-Jun-09 09:00N 01°17' E 103°45'0 0.0
2018-Jun-09 08:29N 01°17' E 103°45'0 0.0
2018-Jun-09 08:00N 01°17' E 103°45'0 0.0
2018-Jun-09 07:21N 01°17' E 103°45'0 0.0
2018-Jun-09 06:57N 01°17' E 103°45'0 0.0
2018-Jun-09 06:30N 01°17' E 103°45'0 0.0
2018-Jun-09 05:59N 01°17' E 103°45'0 0.0
2018-Jun-09 05:29N 01°17' E 103°45'0 0.0
2018-Jun-09 04:59N 01°17' E 103°45'0 0.0
2018-Jun-09 04:30N 01°17' E 103°45'0 0.0
2018-Jun-09 04:00N 01°17' E 103°45'0 0.0
2018-Jun-09 03:30N 01°17' E 103°45'0 0.0
2018-Jun-09 03:00N 01°17' E 103°45'0 0.0
2018-Jun-09 02:30N 01°17' E 103°45'0 0.0
2018-Jun-09 01:59N 01°17' E 103°45'0 0.0
2018-Jun-09 01:29N 01°17' E 103°45'0 0.0
2018-Jun-09 00:59N 01°17' E 103°45'0 0.0
2018-Jun-09 00:27N 01°17' E 103°45'0 0.0
2018-Jun-09 00:00N 01°17' E 103°45'1 1.1
2018-Jun-08 23:30N 01°17' E 103°45'4 7.3
2018-Jun-08 23:00N 01°14' E 103°47'5 9.5
2018-Jun-08 22:30N 01°13' E 103°52'2 4.3
2018-Jun-08 22:00N 01°14' E 103°54'3 5.0
2018-Jun-08 21:29N 01°14' E 103°57'4 8.0
2018-Jun-08 21:00N 01°15' E 104°00'510.7
2018-Jun-08 20:30N 01°16' E 104°05'610.6
2018-Jun-08 19:57N 01°17' E 104°11'510.7
2018-Jun-08 19:30N 01°17' E 104°16'510.4
2018-Jun-08 18:59N 01°20' E 104°21'610.9
2018-Jun-08 18:28N 01°24' E 104°25'510.7
2018-Jun-08 18:00N 01°27' E 104°29'611.0
2018-Jun-08 17:28N 01°31' E 104°33'  

Dump ship's entire track history